Time;durP1;ratioP1;P1;durP2;ratioP2;P2;SDS_P1;SDS_P2;PMS_P1;PMS_P2;Temp;Humidity;BMP_temperature;BMP_pressure;BME280_temperature;BME280_humidity;BME280_pressure;Samples;Min_cycle;Max_cycle;Signal;HPM_P1;HPM_P2
2023/06/04 00:02:02;;;;;;;5.25;1.48;;;17.60;47.60;;;;;;5042381;28;20338;-72
2023/06/04 00:04:29;;;;;;;4.05;1.48;;;17.60;47.70;;;;;;5048288;28;20117;-72
2023/06/04 00:06:55;;;;;;;3.55;1.50;;;17.60;47.80;;;;;;5034132;28;20053;-72
2023/06/04 00:09:21;;;;;;;4.60;1.67;;;17.60;47.90;;;;;;5028322;28;20097;-72
2023/06/04 00:11:47;;;;;;;5.55;1.80;;;17.50;47.90;;;;;;5048915;28;20029;-72
2023/06/04 00:14:14;;;;;;;4.05;1.58;;;17.50;47.90;;;;;;5054133;28;20041;-72
2023/06/04 00:16:40;;;;;;;5.68;1.80;;;17.50;48.00;;;;;;5020433;28;20419;-72
2023/06/04 00:19:06;;;;;;;3.50;1.55;;;17.40;48.10;;;;;;5029731;28;20026;-72
2023/06/04 00:21:32;;;;;;;4.65;1.50;;;17.40;48.10;;;;;;5027588;28;20350;-72
2023/06/04 00:23:59;;;;;;;4.90;1.83;;;17.40;48.10;;;;;;5040059;28;20028;-72
2023/06/04 00:26:25;;;;;;;4.65;1.35;;;17.40;48.20;;;;;;5049966;28;20025;-72
2023/06/04 00:28:51;;;;;;;3.28;1.30;;;17.40;48.20;;;;;;5010435;28;20021;-72
2023/06/04 00:31:17;;;;;;;4.35;1.67;;;17.40;48.20;;;;;;5032052;28;20040;-72
2023/06/04 00:33:43;;;;;;;4.00;1.60;;;17.40;48.30;;;;;;5038144;28;20021;-72
2023/06/04 00:36:09;;;;;;;4.75;1.58;;;17.30;48.30;;;;;;5042855;28;20452;-72
2023/06/04 00:38:35;;;;;;;4.45;1.52;;;17.30;48.30;;;;;;5037073;28;20053;-72
2023/06/04 00:41:00;;;;;;;3.08;1.40;;;17.30;48.90;;;;;;5039885;28;20025;-72
2023/06/04 00:43:27;;;;;;;3.17;1.50;;;17.20;48.30;;;;;;5042070;28;20024;-72
2023/06/04 00:45:53;;;;;;;5.22;1.65;;;17.20;48.30;;;;;;5035487;28;20025;-72
2023/06/04 00:48:20;;;;;;;3.38;1.40;;;17.20;48.30;;;;;;5041765;28;20053;-72
2023/06/04 00:50:48;;;;;;;3.88;1.40;;;17.20;48.30;;;;;;5031418;28;20442;-72
2023/06/04 00:53:14;;;;;;;3.65;1.55;;;17.20;48.20;;;;;;5043966;28;20094;-72
2023/06/04 00:55:40;;;;;;;4.47;1.48;;;17.20;48.20;;;;;;5047147;28;20112;-72
2023/06/04 00:58:06;;;;;;;3.83;1.60;;;17.20;48.20;;;;;;5048129;28;20079;-72
2023/06/04 01:00:32;;;;;;;4.60;1.63;;;17.10;48.20;;;;;;5016331;28;20446;-72
2023/06/04 01:03:05;;;;;;;3.70;1.50;;;17.10;48.30;;;;;;5045328;28;20048;-72
2023/06/04 01:05:42;;;;;;;3.38;1.50;;;17.10;48.40;;;;;;5044163;28;20060;-72
2023/06/04 01:08:11;;;;;;;3.95;1.40;;;17.10;48.40;;;;;;5030447;28;20033;-72
2023/06/04 01:10:37;;;;;;;3.47;1.50;;;17.00;48.40;;;;;;5017213;28;20093;-72
2023/06/04 01:13:02;;;;;;;5.93;1.70;;;17.00;48.40;;;;;;5022510;28;20037;-72
2023/06/04 01:15:28;;;;;;;5.15;1.63;;;17.00;48.40;;;;;;5043595;28;20116;-72
2023/06/04 01:18:05;;;;;;;5.32;1.60;;;17.00;48.50;;;;;;5029504;28;20124;-72
2023/06/04 01:20:44;;;;;;;4.10;1.60;;;16.90;48.40;;;;;;5024411;28;20044;-72
2023/06/04 01:23:39;;;;;;;5.25;1.75;;;16.90;48.40;;;;;;5031625;28;20025;-72
2023/06/04 01:26:05;;;;;;;5.65;1.60;;;16.90;48.40;;;;;;5027362;28;20060;-72
2023/06/04 01:28:33;;;;;;;3.50;1.50;;;16.80;48.30;;;;;;5041706;28;20033;-72
2023/06/04 01:31:01;;;;;;;4.47;1.35;;;16.80;48.30;;;;;;5028392;28;20033;-72
2023/06/04 01:33:27;;;;;;;4.93;1.35;;;16.80;48.30;;;;;;5034889;28;20056;-72
2023/06/04 01:35:53;;;;;;;6.00;1.77;;;16.80;48.20;;;;;;5047543;28;20408;-72
2023/06/04 01:38:19;;;;;;;3.38;1.33;;;16.80;48.20;;;;;;5040318;28;20083;-72
2023/06/04 01:40:46;;;;;;;3.35;1.38;;;16.70;48.20;;;;;;5035015;28;20457;-72
2023/06/04 01:43:12;;;;;;;5.75;1.48;;;16.70;48.20;;;;;;5041544;28;20110;-72
2023/06/04 01:45:37;;;;;;;4.90;1.52;;;16.70;48.30;;;;;;5049481;28;20025;-72
2023/06/04 01:48:05;;;;;;;4.38;1.58;;;16.70;48.40;;;;;;5027435;28;20457;-72
2023/06/04 01:50:31;;;;;;;3.95;1.33;;;16.70;48.40;;;;;;5041368;28;20034;-72
2023/06/04 01:52:57;;;;;;;6.15;1.65;;;16.70;48.40;;;;;;5037641;28;20029;-72
2023/06/04 01:55:25;;;;;;;7.05;1.83;;;16.60;48.40;;;;;;5027845;28;20445;-72
2023/06/04 01:57:51;;;;;;;3.05;1.50;;;16.60;48.40;;;;;;5030064;28;20064;-72
2023/06/04 02:00:17;;;;;;;3.78;1.60;;;16.60;48.50;;;;;;5042948;28;20109;-72
2023/06/04 02:02:45;;;;;;;3.33;1.50;;;16.60;48.50;;;;;;5032073;28;20016;-72
2023/06/04 02:05:11;;;;;;;3.33;1.27;;;16.60;48.50;;;;;;5041605;28;20123;-72
2023/06/04 02:07:44;;;;;;;4.72;1.48;;;16.50;48.40;;;;;;5040062;28;20108;-72
2023/06/04 02:10:13;;;;;;;4.90;1.50;;;16.50;48.50;;;;;;5030466;28;20017;-72
2023/06/04 02:12:40;;;;;;;4.45;1.50;;;16.50;48.50;;;;;;5042678;28;20417;-72
2023/06/04 02:15:09;;;;;;;5.32;1.40;;;16.50;48.60;;;;;;5012027;28;20029;-72
2023/06/04 02:17:39;;;;;;;3.53;1.50;;;16.50;48.60;;;;;;5043922;28;20025;-72
2023/06/04 02:20:06;;;;;;;4.35;1.52;;;16.50;48.70;;;;;;5037302;28;20028;-72
2023/06/04 02:22:32;;;;;;;4.18;1.40;;;16.40;48.70;;;;;;5050826;28;20461;-72
2023/06/04 02:24:59;;;;;;;4.90;1.73;;;16.40;48.80;;;;;;5030385;28;20204;-72
2023/06/04 02:27:25;;;;;;;3.90;1.77;;;16.40;48.80;;;;;;5056594;28;20041;-72
2023/06/04 02:29:51;;;;;;;6.65;1.92;;;16.40;48.70;;;;;;5042325;28;20373;-72
2023/06/04 02:32:17;;;;;;;5.13;1.90;;;16.40;48.70;;;;;;5048422;28;20318;-72
2023/06/04 02:34:43;;;;;;;4.95;1.50;;;16.30;48.70;;;;;;5033915;28;20051;-72
2023/06/04 02:37:09;;;;;;;3.42;1.73;;;16.30;48.80;;;;;;5037236;28;20136;-72
2023/06/04 02:39:35;;;;;;;5.43;1.67;;;16.30;48.90;;;;;;5045665;28;20112;-72
2023/06/04 02:42:01;;;;;;;3.70;1.60;;;16.30;48.90;;;;;;5051664;28;20075;-72
2023/06/04 02:44:29;;;;;;;5.00;1.77;;;16.30;49.00;;;;;;5026869;28;20459;-72
2023/06/04 02:46:55;;;;;;;4.25;1.70;;;16.30;49.00;;;;;;5030299;28;20442;-72
2023/06/04 02:49:21;;;;;;;4.20;1.70;;;16.20;49.00;;;;;;5054278;28;20029;-72
2023/06/04 02:51:47;;;;;;;3.50;1.50;;;16.20;49.10;;;;;;5043525;28;20065;-72
2023/06/04 02:54:13;;;;;;;4.93;1.70;;;16.20;49.20;;;;;;5047604;28;20068;-72
2023/06/04 02:56:39;;;;;;;5.38;1.80;;;16.20;49.20;;;;;;5019984;28;20021;-72
2023/06/04 02:59:05;;;;;;;3.03;1.50;;;16.20;49.30;;;;;;5044954;28;20072;-72
2023/06/04 03:01:33;;;;;;;4.65;1.77;;;16.10;49.30;;;;;;5031710;28;20024;-72
2023/06/04 03:03:58;;;;;;;3.60;1.50;;;16.10;49.30;;;;;;5021319;28;20370;-72
2023/06/04 03:06:25;;;;;;;4.00;1.58;;;16.10;49.40;;;;;;5035971;28;20099;-72
2023/06/04 03:08:52;;;;;;;6.82;2.00;;;16.10;49.40;;;;;;5032897;28;20048;-72
2023/06/04 03:11:21;;;;;;;7.07;1.83;;;16.10;49.60;;;;;;5031090;28;20455;-72
2023/06/04 03:13:48;;;;;;;4.15;1.80;;;16.10;50.20;;;;;;5036287;28;20033;-72
2023/06/04 03:16:14;;;;;;;4.90;2.17;;;16.00;49.70;;;;;;5028205;28;20041;-72
2023/06/04 03:18:41;;;;;;;4.30;1.60;;;16.00;49.70;;;;;;5028411;28;20068;-72
2023/06/04 03:21:08;;;;;;;5.55;2.15;;;16.00;49.80;;;;;;5023796;28;20026;-72
2023/06/04 03:23:35;;;;;;;4.93;1.92;;;16.00;49.90;;;;;;5028312;28;20040;-72
2023/06/04 03:26:05;;;;;;;5.25;1.80;;;15.90;49.90;;;;;;5016723;28;20021;-72
2023/06/04 03:28:32;;;;;;;5.72;2.00;;;15.90;50.00;;;;;;5029964;28;20029;-72
2023/06/04 03:31:01;;;;;;;5.22;1.83;;;15.90;50.10;;;;;;5029399;28;20055;-72
2023/06/04 03:33:27;;;;;;;6.00;1.92;;;15.90;50.20;;;;;;5015323;28;20370;-72
2023/06/04 03:35:53;;;;;;;4.82;1.80;;;15.90;50.50;;;;;;5028814;28;20036;-72
2023/06/04 03:38:19;;;;;;;5.63;2.00;;;15.80;50.40;;;;;;5029956;28;20112;-72
2023/06/04 03:40:46;;;;;;;4.20;1.70;;;15.80;50.40;;;;;;5033720;28;20121;-72
2023/06/04 03:43:13;;;;;;;5.13;1.90;;;15.80;50.60;;;;;;5028770;28;20382;-72
2023/06/04 03:45:41;;;;;;;7.28;2.00;;;15.80;50.70;;;;;;5013842;28;20026;-72
2023/06/04 03:48:07;;;;;;;4.70;1.67;;;15.80;50.70;;;;;;5010884;28;20153;-72
2023/06/04 03:50:35;;;;;;;5.03;1.80;;;15.70;50.80;;;;;;5035938;28;20051;-72
2023/06/04 03:53:01;;;;;;;4.45;1.90;;;15.80;50.90;;;;;;5011428;28;20121;-72
2023/06/04 03:55:31;;;;;;;5.18;2.03;;;15.70;50.90;;;;;;5017762;28;20029;-72
2023/06/04 03:57:58;;;;;;;5.15;1.77;;;15.70;51.00;;;;;;5032949;28;20087;-72
2023/06/04 04:00:24;;;;;;;6.53;1.85;;;15.70;51.10;;;;;;5033411;28;20025;-72
2023/06/04 04:02:53;;;;;;;6.18;2.00;;;15.80;51.20;;;;;;5032369;28;20030;-72
2023/06/04 04:05:23;;;;;;;6.43;2.10;;;15.70;51.20;;;;;;5032379;28;20021;-72
2023/06/04 04:07:50;;;;;;;5.05;2.00;;;15.70;51.30;;;;;;5034165;28;20044;-72
2023/06/04 04:10:19;;;;;;;4.72;1.80;;;15.70;51.30;;;;;;5031311;28;20036;-71
2023/06/04 04:12:46;;;;;;;6.15;2.17;;;15.70;51.40;;;;;;5016589;28;20033;-72
2023/06/04 04:15:12;;;;;;;4.80;1.88;;;15.70;51.40;;;;;;5022932;28;20029;-71
2023/06/04 04:17:39;;;;;;;5.22;1.95;;;15.70;51.50;;;;;;5033897;28;20036;-72
2023/06/04 04:20:05;;;;;;;5.18;1.90;;;15.70;51.50;;;;;;5029412;28;20022;-72
2023/06/04 04:22:32;;;;;;;3.85;1.65;;;15.70;51.60;;;;;;5032848;28;20442;-72
2023/06/04 04:24:59;;;;;;;4.45;2.08;;;15.70;51.60;;;;;;5026850;28;20022;-72
2023/06/04 04:27:25;;;;;;;4.63;2.10;;;15.70;51.60;;;;;;5032230;28;20029;-71
2023/06/04 04:29:55;;;;;;;4.13;1.75;;;15.70;51.80;;;;;;5032607;28;20458;-72
2023/06/04 04:32:22;;;;;;;5.03;1.70;;;15.70;51.90;;;;;;5017358;28;20029;-72
2023/06/04 04:34:54;;;;;;;5.32;1.80;;;15.70;52.00;;;;;;5027253;28;20029;-72
2023/06/04 04:37:24;;;;;;;4.15;1.90;;;15.70;52.10;;;;;;5019331;28;20431;-72
2023/06/04 04:39:52;;;;;;;5.38;2.00;;;15.70;52.10;;;;;;5033879;28;20056;-71
2023/06/04 04:42:20;;;;;;;3.80;1.50;;;15.70;52.20;;;;;;5026214;28;20055;-71
2023/06/04 04:44:50;;;;;;;4.18;1.80;;;15.70;52.40;;;;;;5005281;28;20039;-71
2023/06/04 04:47:16;;;;;;;5.60;1.73;;;15.70;52.40;;;;;;5029808;28;20094;-71
2023/06/04 04:49:42;;;;;;;3.75;1.67;;;15.70;52.50;;;;;;5013151;28;20108;-72
2023/06/04 04:52:08;;;;;;;5.63;1.92;;;15.80;52.60;;;;;;5022962;28;20128;-72
2023/06/04 04:54:36;;;;;;;5.32;2.10;;;15.80;52.60;;;;;;5025589;28;20025;-72
2023/06/04 04:57:02;;;;;;;5.50;2.30;;;15.80;52.60;;;;;;5021056;28;20029;-71
2023/06/04 04:59:28;;;;;;;6.50;2.40;;;15.80;52.70;;;;;;5014657;28;20046;-72
2023/06/04 05:01:55;;;;;;;7.07;2.08;;;15.90;52.80;;;;;;5013584;28;20029;-72
2023/06/04 05:04:21;;;;;;;5.53;2.15;;;15.90;52.90;;;;;;5027277;28;20022;-71
2023/06/04 05:06:47;;;;;;;6.18;2.05;;;15.90;52.80;;;;;;5023525;28;20068;-72
2023/06/04 05:09:13;;;;;;;6.53;2.10;;;16.00;52.70;;;;;;5027459;28;20053;-72
2023/06/04 05:11:39;;;;;;;6.50;2.00;;;16.00;52.60;;;;;;5005285;28;20478;-72
2023/06/04 05:14:05;;;;;;;6.18;2.00;;;16.10;52.50;;;;;;5031855;28;20037;-72
2023/06/04 05:16:31;;;;;;;6.00;2.45;;;16.30;52.60;;;;;;5033118;28;20123;-72
2023/06/04 05:18:58;;;;;;;3.78;1.77;;;16.40;52.50;;;;;;5030721;28;20025;-72
2023/06/04 05:21:28;;;;;;;5.20;1.80;;;16.60;52.30;;;;;;5028884;28;20029;-72
2023/06/04 05:23:59;;;;;;;5.65;2.22;;;16.80;52.00;;;;;;5030460;28;20454;-72
2023/06/04 05:26:29;;;;;;;5.07;2.10;;;17.10;51.70;;;;;;5013900;28;20167;-72
2023/06/04 05:28:59;;;;;;;5.32;2.10;;;17.20;51.40;;;;;;5032103;28;20028;-71
2023/06/04 05:31:29;;;;;;;6.68;2.00;;;17.40;51.20;;;;;;5026574;28;20025;-72
2023/06/04 05:33:57;;;;;;;7.47;2.30;;;17.50;51.10;;;;;;5030827;28;20026;-72
2023/06/04 05:36:24;;;;;;;5.78;1.90;;;17.50;51.00;;;;;;5032463;28;20032;-72
2023/06/04 05:38:59;;;;;;;5.25;1.85;;;17.60;50.80;;;;;;5032749;28;20037;-72
2023/06/04 05:41:32;;;;;;;4.93;1.83;;;17.60;50.60;;;;;;5031529;28;20021;-71
2023/06/04 05:43:59;;;;;;;5.35;1.90;;;17.70;50.50;;;;;;5014980;28;20375;-72
2023/06/04 05:46:25;;;;;;;5.85;2.00;;;17.80;50.60;;;;;;5031790;28;20347;-71
2023/06/04 05:48:53;;;;;;;6.15;2.20;;;17.90;50.50;;;;;;5036914;28;20040;-72
2023/06/04 05:51:20;;;;;;;4.53;1.95;;;17.90;50.40;;;;;;5036102;28;20080;-72
2023/06/04 05:53:47;;;;;;;5.60;1.83;;;18.00;50.30;;;;;;5032893;28;20104;-71
2023/06/04 05:56:13;;;;;;;4.95;1.95;;;18.10;50.30;;;;;;5035781;28;20029;-71
2023/06/04 05:58:39;;;;;;;6.85;1.90;;;18.20;50.10;;;;;;5036562;28;20045;-71
2023/06/04 06:01:07;;;;;;;5.78;1.77;;;18.20;50.00;;;;;;5016506;28;20026;-72
2023/06/04 06:03:33;;;;;;;6.10;1.65;;;18.40;49.90;;;;;;5033139;28;20037;-71
2023/06/04 06:06:00;;;;;;;5.53;2.10;;;18.40;49.60;;;;;;5035730;28;20029;-72
2023/06/04 06:08:26;;;;;;;4.20;1.75;;;18.50;49.70;;;;;;5020034;28;20494;-72
2023/06/04 06:10:54;;;;;;;3.45;1.50;;;18.60;49.50;;;;;;5024128;28;20121;-72
2023/06/04 06:13:20;;;;;;;6.50;1.85;;;18.80;49.30;;;;;;5026502;28;20033;-71
2023/06/04 06:15:48;;;;;;;3.83;1.58;;;18.80;49.10;;;;;;5033375;28;20025;-72
2023/06/04 06:18:14;;;;;;;4.80;1.80;;;18.90;48.90;;;;;;5018438;28;20036;-72
2023/06/04 06:20:41;;;;;;;4.53;1.65;;;19.00;48.90;;;;;;5034630;28;20079;-72
2023/06/04 06:23:07;;;;;;;5.38;2.10;;;19.10;49.00;;;;;;5029120;28;20120;-72
2023/06/04 06:25:34;;;;;;;4.93;1.70;;;19.20;48.70;;;;;;5025387;28;20025;-71
2023/06/04 06:28:06;;;;;;;4.95;1.70;;;19.30;48.40;;;;;;5026935;28;20033;-71
2023/06/04 06:30:34;;;;;;;5.70;1.83;;;19.40;48.10;;;;;;5027476;28;20410;-70
2023/06/04 06:32:59;;;;;;;5.60;1.75;;;19.50;48.10;;;;;;5027594;28;20029;-71
2023/06/04 06:35:25;;;;;;;5.18;2.08;;;19.60;48.00;;;;;;5027982;28;20033;-70
2023/06/04 06:37:51;;;;;;;6.28;2.00;;;19.70;47.80;;;;;;5029320;28;20029;-71
2023/06/04 06:40:17;;;;;;;5.55;2.35;;;19.90;47.70;;;;;;5029000;28;20112;-71
2023/06/04 06:42:47;;;;;;;5.30;1.80;;;20.00;47.50;;;;;;5037094;28;20047;-70
2023/06/04 06:45:13;;;;;;;3.83;1.75;;;20.10;47.30;;;;;;5026817;28;20034;-72
2023/06/04 06:47:38;;;;;;;5.85;2.00;;;20.20;47.10;;;;;;5028111;28;20073;-71
2023/06/04 06:50:04;;;;;;;3.60;1.73;;;20.40;47.10;;;;;;5029427;28;20370;-71
2023/06/04 06:52:30;;;;;;;4.93;1.80;;;20.50;46.90;;;;;;5029970;28;20029;-70
2023/06/04 06:54:56;;;;;;;6.90;1.85;;;20.70;46.90;;;;;;5027808;28;20029;-70
2023/06/04 06:57:22;;;;;;;4.95;1.77;;;20.80;46.80;;;;;;5026155;28;20029;-70
2023/06/04 06:59:48;;;;;;;5.72;1.70;;;21.00;46.60;;;;;;5032012;28;20049;-70
2023/06/04 07:02:13;;;;;;;4.60;1.85;;;21.10;46.40;;;;;;5029723;28;20068;-70
2023/06/04 07:04:39;;;;;;;4.75;1.98;;;21.20;46.00;;;;;;5013159;28;20071;-70
2023/06/04 07:07:05;;;;;;;5.05;1.90;;;21.30;45.70;;;;;;5026287;28;20095;-69
2023/06/04 07:09:31;;;;;;;6.20;1.90;;;21.50;45.50;;;;;;5029574;28;20045;-70
2023/06/04 07:11:57;;;;;;;6.38;2.17;;;21.60;45.30;;;;;;5027995;28;20112;-70
2023/06/04 07:14:23;;;;;;;5.35;1.73;;;21.80;45.10;;;;;;5030537;28;20409;-72
2023/06/04 07:16:48;;;;;;;5.05;1.73;;;21.90;44.80;;;;;;5035494;28;20030;-72
2023/06/04 07:19:14;;;;;;;4.22;1.80;;;22.00;44.50;;;;;;5035589;28;20104;-72
2023/06/04 07:21:40;;;;;;;4.63;1.63;;;22.20;44.90;;;;;;5036843;28;20066;-72
2023/06/04 07:24:06;;;;;;;4.43;1.27;;;22.30;44.00;;;;;;5017306;28;20373;-72
2023/06/04 07:26:33;;;;;;;5.07;1.75;;;22.40;43.80;;;;;;5034885;28;20034;-72
2023/06/04 07:28:58;;;;;;;5.13;1.85;;;22.50;43.70;;;;;;5035439;28;20099;-72
2023/06/04 07:31:24;;;;;;;4.68;1.73;;;22.70;43.50;;;;;;5035435;28;20029;-71
2023/06/04 07:33:50;;;;;;;4.25;1.73;;;22.70;43.10;;;;;;5031742;28;20033;-72
2023/06/04 07:36:16;;;;;;;4.78;1.70;;;22.90;42.70;;;;;;5035156;28;20103;-72
2023/06/04 07:38:42;;;;;;;5.05;1.60;;;23.00;42.40;;;;;;5035362;28;20124;-72
2023/06/04 07:41:09;;;;;;;2.75;1.27;;;23.10;42.00;;;;;;5036089;28;20053;-72
2023/06/04 07:43:35;;;;;;;5.45;1.80;;;23.20;41.70;;;;;;5033820;28;20100;-72
2023/06/04 07:46:05;;;;;;;5.53;1.45;;;23.20;41.50;;;;;;5021882;28;20065;-72
2023/06/04 07:48:31;;;;;;;4.80;1.58;;;23.30;42.00;;;;;;5029283;28;21993;-72
2023/06/04 07:51:01;;;;;;;4.78;1.60;;;23.40;41.00;;;;;;5030237;28;20431;-72
2023/06/04 07:53:27;;;;;;;4.03;1.60;;;23.60;40.90;;;;;;5035036;28;20103;-71
2023/06/04 07:55:54;;;;;;;4.63;1.58;;;23.70;40.70;;;;;;5023567;28;20057;-72
2023/06/04 07:58:20;;;;;;;3.83;1.65;;;23.70;40.50;;;;;;5029812;28;20017;-72
2023/06/04 08:00:45;;;;;;;6.18;1.83;;;23.90;40.40;;;;;;5030477;28;20104;-72
2023/06/04 08:03:11;;;;;;;4.32;1.95;;;23.90;40.10;;;;;;5028204;28;20423;-72
2023/06/04 08:05:37;;;;;;;4.65;1.30;;;24.10;40.10;;;;;;5028536;28;20449;-72
2023/06/04 08:08:03;;;;;;;3.83;1.60;;;24.20;40.00;;;;;;5027759;28;20315;-72
2023/06/04 08:10:29;;;;;;;4.35;1.38;;;24.30;39.80;;;;;;5027927;28;20029;-72
2023/06/04 08:12:56;;;;;;;4.13;1.40;;;24.40;40.00;;;;;;5027359;28;20034;-71
2023/06/04 08:15:22;;;;;;;3.22;1.30;;;24.50;39.00;;;;;;5014819;28;20036;-71
2023/06/04 08:17:47;;;;;;;2.72;1.15;;;24.60;38.50;;;;;;5024173;28;20362;-69
2023/06/04 08:20:13;;;;;;;3.22;1.30;;;24.70;38.20;;;;;;5026018;28;20034;-69
2023/06/04 08:22:40;;;;;;;3.22;1.30;;;24.80;37.90;;;;;;5027882;28;20025;-70
2023/06/04 08:25:06;;;;;;;4.40;1.38;;;24.90;37.70;;;;;;5027021;28;20041;-69
2023/06/04 08:27:32;;;;;;;3.30;1.08;;;25.00;37.30;;;;;;5002459;28;20037;-69
2023/06/04 08:29:58;;;;;;;3.88;1.27;;;25.10;37.10;;;;;;5026722;28;20044;-69
2023/06/04 08:32:24;;;;;;;4.03;1.30;;;25.20;36.80;;;;;;5027632;28;20034;-69
2023/06/04 08:34:50;;;;;;;2.50;1.00;;;25.20;36.40;;;;;;5027732;28;20473;-70
2023/06/04 08:37:17;;;;;;;4.20;1.45;;;25.30;36.00;;;;;;5027497;28;20025;-69
2023/06/04 08:39:43;;;;;;;2.60;1.30;;;25.40;35.60;;;;;;5026297;28;20100;-70
2023/06/04 08:42:29;;;;;;;3.97;1.60;;;25.40;35.40;;;;;;5027891;28;20216;-69
2023/06/04 08:44:57;;;;;;;3.83;1.23;;;25.50;35.50;;;;;;5028161;28;20052;-69
2023/06/04 08:47:25;;;;;;;3.35;1.52;;;25.50;35.60;;;;;;5026684;28;20029;-69
2023/06/04 08:49:54;;;;;;;3.67;1.10;;;25.60;35.50;;;;;;5026331;28;20044;-69
2023/06/04 08:52:21;;;;;;;2.38;1.00;;;25.70;35.50;;;;;;5027245;28;20033;-70
2023/06/04 08:54:51;;;;;;;4.75;1.52;;;25.80;35.30;;;;;;5027712;28;20339;-69
2023/06/04 08:57:20;;;;;;;3.60;1.30;;;25.90;34.90;;;;;;5027026;28;20048;-70
2023/06/04 08:59:47;;;;;;;4.45;1.30;;;26.00;34.60;;;;;;5023588;28;20130;-69
2023/06/04 09:02:15;;;;;;;3.17;1.02;;;26.00;34.30;;;;;;5026683;28;20030;-69
2023/06/04 09:04:41;;;;;;;5.32;1.27;;;26.00;34.50;;;;;;5030621;28;20026;-70
2023/06/04 09:07:10;;;;;;;4.25;1.48;;;26.10;33.70;;;;;;5027467;28;20037;-70
2023/06/04 09:09:39;;;;;;;1.98;0.90;;;26.20;33.40;;;;;;5028306;28;20029;-70
2023/06/04 09:12:10;;;;;;;3.17;1.23;;;26.30;33.00;;;;;;5028229;28;20419;-70
2023/06/04 09:14:36;;;;;;;2.72;1.10;;;26.30;32.20;;;;;;5025637;28;20439;-69
2023/06/04 09:17:02;;;;;;;4.18;1.60;;;26.40;32.50;;;;;;5025800;28;20026;-69
2023/06/04 09:19:27;;;;;;;2.95;1.20;;;26.50;32.70;;;;;;5025199;28;20083;-70
2023/06/04 09:21:56;;;;;;;2.90;1.20;;;26.60;32.60;;;;;;5024779;28;20505;-70
2023/06/04 09:24:39;;;;;;;3.95;1.27;;;26.60;32.40;;;;;;5019877;28;20105;-70
2023/06/04 09:27:16;;;;;;;4.97;1.48;;;26.70;32.20;;;;;;5021131;28;20489;-71
2023/06/04 09:30:02;;;;;;;4.95;1.27;;;26.80;32.20;;;;;;5029812;28;20427;-71
2023/06/04 09:32:30;;;;;;;5.15;1.50;;;26.90;32.30;;;;;;5028167;28;20441;-71
2023/06/04 09:35:17;;;;;;;1.83;1.00;;;27.00;31.90;;;;;;5026907;28;20044;-72
2023/06/04 09:37:52;;;;;;;2.33;1.15;;;27.10;32.20;;;;;;5013295;28;20053;-72
2023/06/04 09:40:18;;;;;;;2.50;0.85;;;27.20;31.60;;;;;;5027477;28;20021;-72
2023/06/04 09:42:53;;;;;;;2.38;1.02;;;27.20;31.40;;;;;;5025922;28;20048;-71
2023/06/04 09:45:33;;;;;;;2.47;1.13;;;27.30;31.20;;;;;;5024931;28;20447;-71
2023/06/04 09:47:59;;;;;;;3.22;1.30;;;27.40;31.50;;;;;;5026573;28;20030;-71
2023/06/04 09:50:41;;;;;;;2.85;1.00;;;27.40;31.70;;;;;;5023603;28;20030;-71
2023/06/04 09:53:20;;;;;;;2.28;0.90;;;27.50;31.50;;;;;;5023526;28;20037;-72
2023/06/04 09:56:00;;;;;;;1.92;1.00;;;27.50;31.50;;;;;;5026730;28;20354;-72
2023/06/04 09:58:27;;;;;;;3.45;1.23;;;27.60;31.40;;;;;;5026219;28;20064;-72
2023/06/04 10:00:56;;;;;;;3.00;0.90;;;27.60;31.00;;;;;;5027107;28;20021;-72
2023/06/04 10:03:25;;;;;;;2.97;1.10;;;27.70;30.70;;;;;;5023410;28;20033;-71
2023/06/04 10:05:56;;;;;;;2.00;0.98;;;27.70;30.70;;;;;;5024062;28;20119;-72
2023/06/04 10:08:26;;;;;;;2.92;1.25;;;27.70;30.80;;;;;;5025689;28;20108;-71
2023/06/04 10:11:02;;;;;;;2.83;1.10;;;27.70;30.90;;;;;;5042273;28;20037;-71
2023/06/04 10:13:35;;;;;;;3.13;1.00;;;27.80;30.80;;;;;;5022959;28;20120;-71
2023/06/04 10:16:02;;;;;;;3.55;0.93;;;27.80;30.90;;;;;;5026517;28;20034;-71
2023/06/04 10:18:28;;;;;;;2.50;1.20;;;27.90;31.20;;;;;;5026841;28;20444;-71
2023/06/04 10:20:58;;;;;;;3.10;1.13;;;27.80;31.10;;;;;;5026499;28;20022;-71
2023/06/04 10:23:24;;;;;;;4.20;1.10;;;27.90;31.10;;;;;;5026086;28;20029;-71
2023/06/04 10:25:52;;;;;;;3.05;1.00;;;27.80;31.00;;;;;;5027046;28;20029;-71
2023/06/04 10:28:21;;;;;;;3.05;1.10;;;27.80;31.00;;;;;;5026642;28;20021;-72
2023/06/04 10:30:50;;;;;;;1.98;1.00;;;27.90;30.90;;;;;;5025911;28;20332;-72
2023/06/04 10:33:23;;;;;;;2.45;0.95;;;28.00;30.90;;;;;;5025981;28;20441;-72
2023/06/04 10:35:53;;;;;;;1.83;0.93;;;28.00;30.70;;;;;;5031107;28;20029;-71
2023/06/04 10:38:21;;;;;;;4.25;1.30;;;28.00;30.70;;;;;;5030864;28;20021;-71
2023/06/04 10:40:47;;;;;;;4.40;1.08;;;28.00;30.70;;;;;;5028752;28;20060;-71
2023/06/04 10:43:15;;;;;;;3.80;1.33;;;28.10;30.80;;;;;;5031947;28;20037;-72
2023/06/04 10:45:42;;;;;;;4.13;1.35;;;28.10;30.70;;;;;;5032975;28;20086;-71
2023/06/04 10:48:09;;;;;;;4.32;1.27;;;28.20;30.40;;;;;;5028580;28;20033;-72
2023/06/04 10:50:47;;;;;;;3.35;1.70;;;28.20;30.20;;;;;;5030294;28;20108;-72
2023/06/04 10:53:13;;;;;;;3.85;1.23;;;28.20;30.10;;;;;;5029056;28;20075;-71
2023/06/04 10:55:46;;;;;;;2.53;1.30;;;28.30;30.40;;;;;;5028323;28;20460;-72
2023/06/04 10:58:12;;;;;;;3.13;1.35;;;28.30;30.30;;;;;;5026818;28;20057;-71
2023/06/04 11:00:42;;;;;;;2.75;0.93;;;28.40;30.20;;;;;;5026960;28;20057;-70
2023/06/04 11:03:10;;;;;;;3.70;1.33;;;28.30;30.00;;;;;;5029287;28;20363;-70
2023/06/04 11:05:40;;;;;;;2.33;1.20;;;28.30;30.00;;;;;;5032729;28;20029;-70
2023/06/04 11:08:08;;;;;;;2.75;1.10;;;28.30;30.00;;;;;;5027939;28;20037;-72
2023/06/04 11:10:40;;;;;;;2.50;1.08;;;28.30;30.00;;;;;;5029507;28;20339;-70
2023/06/04 11:13:07;;;;;;;3.95;1.20;;;28.30;30.20;;;;;;5029362;28;20041;-71
2023/06/04 11:15:43;;;;;;;2.60;1.00;;;28.30;30.10;;;;;;5031532;28;20061;-72
2023/06/04 11:18:17;;;;;;;2.58;1.08;;;28.30;29.90;;;;;;5028904;28;20451;-71
2023/06/04 11:20:47;;;;;;;3.58;1.42;;;28.30;29.80;;;;;;5027364;28;20083;-72
2023/06/04 11:23:15;;;;;;;4.72;1.73;;;28.20;29.80;;;;;;5032962;28;20037;-72
2023/06/04 11:25:45;;;;;;;3.13;1.10;;;28.30;29.90;;;;;;5028605;28;20423;-71
2023/06/04 11:28:21;;;;;;;2.20;1.07;;;28.30;29.80;;;;;;5030194;28;20037;-70
2023/06/04 11:30:57;;;;;;;3.78;1.50;;;28.30;29.80;;;;;;5026203;28;20307;-69
2023/06/04 11:33:23;;;;;;;3.35;1.38;;;28.30;29.90;;;;;;5028621;28;20037;-70
2023/06/04 11:35:49;;;;;;;4.68;1.45;;;28.40;29.90;;;;;;5027903;28;21837;-69
2023/06/04 11:38:15;;;;;;;5.10;1.20;;;28.30;29.90;;;;;;5027477;28;20033;-70
2023/06/04 11:40:42;;;;;;;6.00;1.52;;;28.40;29.80;;;;;;5023725;28;20034;-69
2023/06/04 11:43:11;;;;;;;3.85;1.25;;;28.30;29.70;;;;;;5027733;28;20323;-70
2023/06/04 11:45:37;;;;;;;2.90;1.33;;;28.20;29.90;;;;;;5025264;28;20030;-70
2023/06/04 11:48:05;;;;;;;3.45;1.30;;;28.20;30.00;;;;;;5026021;28;20374;-70
2023/06/04 11:50:31;;;;;;;2.42;1.10;;;28.10;30.00;;;;;;5023822;28;20027;-69
2023/06/04 11:52:57;;;;;;;2.72;1.33;;;28.10;30.00;;;;;;5027632;28;20132;-70
2023/06/04 11:55:24;;;;;;;3.15;1.15;;;28.10;30.00;;;;;;5025726;28;20033;-69
2023/06/04 11:57:50;;;;;;;3.60;1.20;;;28.00;30.00;;;;;;5026702;28;20029;-71
2023/06/04 12:00:17;;;;;;;2.70;1.17;;;27.90;30.00;;;;;;5040477;28;20377;-71
2023/06/04 12:02:54;;;;;;;3.50;1.23;;;27.80;30.10;;;;;;5026652;28;20402;-72
2023/06/04 12:05:28;;;;;;;3.03;1.20;;;27.80;30.30;;;;;;5019396;28;20025;-71
2023/06/04 12:08:09;;;;;;;2.33;0.98;;;27.70;30.20;;;;;;5024131;28;20686;-71
2023/06/04 12:10:42;;;;;;;4.75;1.48;;;27.70;30.30;;;;;;5026741;28;20049;-71
2023/06/04 12:13:09;;;;;;;2.28;1.00;;;27.60;30.30;;;;;;5006120;28;20026;-70
2023/06/04 12:15:35;;;;;;;2.83;1.20;;;27.60;30.20;;;;;;5027429;28;20041;-71
2023/06/04 12:18:00;;;;;;;3.15;1.30;;;27.40;30.20;;;;;;5025560;28;20030;-71
2023/06/04 12:20:34;;;;;;;3.33;1.27;;;27.30;30.30;;;;;;5028012;28;20422;-71
2023/06/04 12:23:00;;;;;;;3.00;1.40;;;27.30;30.20;;;;;;5022932;28;21079;-70
2023/06/04 12:25:28;;;;;;;3.03;1.20;;;27.20;30.50;;;;;;5027353;28;20101;-71
2023/06/04 12:27:54;;;;;;;3.33;1.20;;;27.10;30.60;;;;;;5026099;28;20084;-72
2023/06/04 12:30:20;;;;;;;2.22;0.98;;;27.10;30.60;;;;;;5030035;28;20072;-73
2023/06/04 12:32:46;;;;;;;3.75;1.27;;;27.00;30.60;;;;;;5026770;28;20037;-73
2023/06/04 12:35:12;;;;;;;3.25;1.35;;;27.00;31.00;;;;;;5024943;28;20403;-73
2023/06/04 12:37:38;;;;;;;2.38;1.17;;;26.90;31.00;;;;;;5028550;28;20026;-74
2023/06/04 12:40:06;;;;;;;4.50;1.35;;;26.90;31.00;;;;;;5021652;28;20045;-71
2023/06/04 12:42:32;;;;;;;2.55;1.23;;;26.80;30.90;;;;;;5029383;28;20045;-71
2023/06/04 12:44:58;;;;;;;4.35;1.20;;;26.70;31.00;;;;;;5013794;28;20022;-71
2023/06/04 12:47:24;;;;;;;2.67;1.40;;;26.70;31.10;;;;;;5015175;28;20417;-71
2023/06/04 12:49:49;;;;;;;2.67;1.23;;;26.60;31.00;;;;;;5026670;28;20116;-71
2023/06/04 12:52:17;;;;;;;4.72;1.35;;;26.60;31.20;;;;;;5029518;28;20041;-70